createdAt,value
2023-01-27T00:03:25.719Z,4.71
2023-01-27T00:05:54.993Z,4.67
2023-01-27T00:08:23.857Z,4.66
2023-01-27T00:11:18.078Z,4.65
2023-01-27T00:13:51.799Z,4.66
2023-01-27T00:16:21.157Z,4.61
2023-01-27T00:18:47.597Z,4.58
2023-01-27T00:21:37.562Z,4.56
2023-01-27T00:24:24.540Z,4.52
2023-01-27T00:26:50.916Z,4.47
2023-01-27T00:29:22.489Z,4.42
2023-01-27T00:32:08.417Z,4.38
2023-01-27T00:34:34.849Z,4.36
2023-01-27T00:37:07.819Z,4.38
2023-01-27T00:39:38.005Z,4.36
2023-01-27T00:42:07.373Z,4.36
2023-01-27T00:44:36.525Z,4.37
2023-01-27T00:47:03.020Z,4.34
2023-01-27T00:49:29.377Z,4.36
2023-01-27T00:51:55.883Z,4.35
2023-01-27T00:54:22.379Z,4.37
2023-01-27T00:56:49.193Z,4.39
2023-01-27T00:59:26.509Z,4.41
2023-01-27T01:01:53.366Z,4.42
2023-01-27T01:04:22.536Z,4.44
2023-01-27T01:06:52.059Z,4.41
2023-01-27T01:11:58.879Z,4.41
2023-01-27T01:14:34.505Z,4.34
2023-01-27T01:17:00.916Z,4.31
2023-01-27T01:22:13.633Z,4.29
2023-01-27T01:24:39.975Z,4.31
2023-01-27T01:27:06.363Z,4.31
2023-01-27T01:29:38.423Z,4.28
2023-01-27T01:32:05.338Z,4.29
2023-01-27T01:34:31.754Z,4.30
2023-01-27T01:37:01.879Z,4.32
2023-01-27T01:39:32.170Z,4.33
2023-01-27T01:44:45.775Z,4.38
2023-01-27T01:47:16.888Z,4.38
2023-01-27T01:49:49.189Z,4.40
2023-01-27T01:52:21.115Z,4.44
2023-01-27T01:55:11.097Z,4.44
2023-01-27T01:57:43.986Z,4.44
2023-01-27T02:00:16.023Z,4.44
2023-01-27T02:02:43.973Z,4.43
2023-01-27T02:05:19.294Z,4.40
2023-01-27T02:08:19.059Z,4.38
2023-01-27T02:10:49.185Z,4.39
2023-01-27T02:16:57.497Z,4.41
2023-01-27T02:19:43.766Z,4.39
2023-01-27T02:22:18.995Z,4.35
2023-01-27T02:24:56.495Z,4.33
2023-01-27T02:27:25.401Z,4.29
2023-01-27T02:29:56.777Z,4.26
2023-01-27T02:32:29.036Z,4.26
2023-01-27T02:35:04.177Z,4.25
2023-01-27T02:37:35.094Z,4.20
2023-01-27T02:40:05.113Z,4.23
2023-01-27T02:42:38.786Z,4.18
2023-01-27T02:45:08.420Z,4.10
2023-01-27T02:47:34.765Z,4.10
2023-01-27T02:50:04.653Z,4.05
2023-01-27T02:52:30.997Z,3.99
2023-01-27T02:54:57.346Z,3.94
2023-01-27T02:57:28.097Z,3.91
2023-01-27T02:59:57.324Z,3.87
2023-01-27T03:02:32.636Z,3.86
2023-01-27T03:05:02.678Z,3.87
2023-01-27T03:10:13.872Z,3.86
2023-01-27T03:12:44.740Z,3.88
2023-01-27T03:15:32.448Z,3.89
2023-01-27T03:21:07.133Z,3.87
2023-01-27T03:23:34.746Z,3.87
2023-01-27T03:26:05.663Z,3.89
2023-01-27T03:28:32.296Z,3.91
2023-01-27T03:31:02.187Z,3.89
2023-01-27T03:33:37.803Z,3.90
2023-01-27T03:36:27.249Z,3.88
2023-01-27T03:39:12.132Z,3.89
2023-01-27T03:41:59.882Z,3.91
2023-01-27T03:44:45.154Z,3.92
2023-01-27T03:47:11.805Z,3.92
2023-01-27T03:49:39.668Z,3.92
2023-01-27T03:52:06.031Z,3.93
2023-01-27T03:54:32.460Z,3.97
2023-01-27T03:57:09.381Z,3.99
2023-01-27T03:59:35.932Z,4.00
2023-01-27T04:02:25.969Z,4.01
2023-01-27T04:05:14.056Z,4.02
2023-01-27T04:07:40.600Z,4.05
2023-01-27T04:10:12.988Z,4.09
2023-01-27T04:12:43.154Z,4.10
2023-01-27T04:15:15.295Z,4.11
2023-01-27T04:17:42.678Z,4.12
2023-01-27T04:20:10.040Z,4.12
2023-01-27T04:22:39.740Z,4.13
2023-01-27T04:25:06.601Z,4.15
2023-01-27T04:27:33.004Z,4.17
2023-01-27T04:29:59.869Z,4.15
2023-01-27T04:32:30.924Z,4.18
2023-01-27T04:34:57.331Z,4.22
2023-01-27T04:37:36.808Z,4.22
2023-01-27T04:40:09.431Z,4.21
2023-01-27T04:42:38.525Z,4.23
2023-01-27T04:45:06.288Z,4.26
2023-01-27T04:47:33.361Z,4.27
2023-01-27T04:50:02.690Z,4.27
2023-01-27T04:52:29.356Z,4.27
2023-01-27T04:54:58.621Z,4.27
2023-01-27T04:57:25.646Z,4.28
2023-01-27T04:59:51.961Z,4.30
2023-01-27T05:02:20.853Z,4.33
2023-01-27T05:04:49.984Z,4.35
2023-01-27T05:07:16.464Z,4.30
2023-01-27T05:09:45.397Z,4.32
2023-01-27T05:12:15.061Z,4.34
2023-01-27T05:14:41.515Z,4.32
2023-01-27T05:17:10.241Z,4.35
2023-01-27T05:19:39.448Z,4.35
2023-01-27T05:22:06.055Z,4.37
2023-01-27T05:24:33.925Z,4.40
2023-01-27T05:27:03.341Z,4.39
2023-01-27T05:29:29.689Z,4.40
2023-01-27T05:31:58.730Z,4.37
2023-01-27T05:34:28.150Z,4.39
2023-01-27T05:36:54.522Z,4.40
2023-01-27T05:39:24.051Z,4.39
2023-01-27T05:41:54.254Z,4.40
2023-01-27T05:47:09.619Z,4.44
2023-01-27T05:49:36.049Z,4.41
2023-01-27T05:52:02.439Z,4.37
2023-01-27T05:54:32.689Z,4.37
2023-01-27T05:57:02.243Z,4.39
2023-01-27T05:59:28.611Z,4.39
2023-01-27T06:01:58.391Z,4.38
2023-01-27T06:04:24.752Z,4.38
2023-01-27T06:06:51.093Z,4.38
2023-01-27T06:09:20.476Z,4.37
2023-01-27T06:11:49.708Z,4.40
2023-01-27T06:14:16.049Z,4.36
2023-01-27T06:19:29.557Z,4.36
2023-01-27T06:21:56.085Z,4.37
2023-01-27T06:24:26.126Z,4.37
2023-01-27T06:26:53.105Z,4.38
2023-01-27T06:29:22.620Z,4.34
2023-01-27T06:31:55.334Z,4.32
2023-01-27T06:34:24.608Z,4.30
2023-01-27T06:36:55.868Z,4.31
2023-01-27T06:39:24.848Z,4.30
2023-01-27T06:41:51.326Z,4.30
2023-01-27T06:44:20.890Z,4.30
2023-01-27T06:46:49.576Z,4.29
2023-01-27T06:49:16.209Z,4.27
2023-01-27T06:51:45.423Z,4.25
2023-01-27T06:54:15.655Z,4.24
2023-01-27T06:56:42.053Z,4.24
2023-01-27T06:59:13.715Z,4.24
2023-01-27T07:01:40.169Z,4.23
2023-01-27T07:04:06.544Z,4.25
2023-01-27T07:06:41.268Z,4.24
2023-01-27T07:09:07.717Z,4.22
2023-01-27T07:14:28.421Z,4.18
2023-01-27T07:16:54.839Z,4.17
2023-01-27T07:19:24.339Z,4.12
2023-01-27T07:21:53.806Z,4.14
2023-01-27T07:24:27.591Z,4.14
2023-01-27T07:26:57.032Z,4.14
2023-01-27T07:29:25.804Z,4.10
2023-01-27T07:31:57.945Z,4.10
2023-01-27T07:34:24.413Z,4.06
2023-01-27T07:36:54.882Z,4.06
2023-01-27T07:39:26.681Z,4.06
2023-01-27T07:44:34.216Z,4.15
2023-01-27T07:47:02.235Z,4.17
2023-01-27T07:49:32.339Z,4.20
2023-01-27T07:52:02.853Z,4.16
2023-01-27T07:54:32.154Z,4.10
2023-01-27T07:59:43.945Z,3.95
2023-01-27T08:02:11.123Z,3.90
2023-01-27T08:04:50.795Z,3.87
2023-01-27T08:07:18.773Z,3.90
2023-01-27T08:09:45.235Z,3.90
2023-01-27T08:14:57.436Z,3.87
2023-01-27T08:17:26.607Z,3.90
2023-01-27T08:19:53.031Z,3.98
2023-01-27T08:22:22.797Z,4.09
2023-01-27T08:24:49.641Z,4.16
2023-01-27T08:27:17.465Z,4.18
2023-01-27T08:29:47.654Z,4.13
2023-01-27T08:32:15.235Z,4.08
2023-01-27T08:34:43.490Z,4.06
2023-01-27T08:37:10.185Z,4.09
2023-01-27T08:39:39.638Z,4.09
2023-01-27T08:42:08.349Z,4.06
2023-01-27T08:44:40.653Z,4.04
2023-01-27T08:47:06.977Z,4.02
2023-01-27T08:49:37.923Z,4.05
2023-01-27T08:52:04.405Z,4.06
2023-01-27T08:54:30.811Z,4.13
2023-01-27T08:57:05.531Z,4.13
2023-01-27T08:59:31.882Z,4.19
2023-01-27T09:02:03.631Z,4.21
2023-01-27T09:04:32.926Z,4.25
2023-01-27T09:07:02.028Z,4.27
2023-01-27T09:09:37.276Z,4.28
2023-01-27T09:12:07.767Z,4.28
2023-01-27T09:14:37.762Z,4.33
2023-01-27T09:17:04.399Z,4.39
2023-01-27T09:19:34.303Z,4.39
2023-01-27T09:22:03.464Z,4.34
2023-01-27T09:24:30.161Z,4.25
2023-01-27T09:27:00.055Z,4.23
2023-01-27T09:29:29.764Z,4.25
2023-01-27T09:31:58.259Z,4.30
2023-01-27T09:34:28.549Z,4.42
2023-01-27T09:37:05.457Z,4.58
2023-01-27T09:39:35.409Z,4.62
2023-01-27T09:42:28.459Z,4.57
2023-01-27T09:45:35.256Z,4.67
2023-01-27T09:48:32.422Z,4.61
2023-01-27T09:51:33.381Z,4.66
2023-01-27T09:54:28.333Z,4.66
2023-01-27T09:57:21.795Z,4.59
2023-01-27T10:00:16.554Z,4.58
2023-01-27T10:03:04.957Z,4.66
2023-01-27T10:05:39.818Z,4.66
2023-01-27T10:08:50.524Z,4.67
2023-01-27T10:18:25.737Z,4.73
2023-01-27T10:21:35.452Z,4.76
2023-01-27T10:24:47.881Z,4.83
2023-01-27T10:30:32.961Z,4.78
2023-01-27T10:33:21.425Z,4.77
2023-01-27T10:36:38.937Z,4.76
2023-01-27T10:39:46.881Z,4.84
2023-01-27T10:42:33.346Z,4.84
2023-01-27T10:45:20.979Z,4.78
2023-01-27T10:48:12.103Z,4.89
2023-01-27T10:50:56.788Z,4.92
2023-01-27T10:53:34.311Z,4.89
2023-01-27T10:56:28.041Z,4.89
2023-01-27T10:59:15.548Z,4.88
2023-01-27T11:02:09.697Z,4.76
2023-01-27T11:04:39.870Z,4.72
2023-01-27T11:07:07.039Z,4.80
2023-01-27T11:09:43.562Z,4.81
2023-01-27T11:12:18.979Z,4.79
2023-01-27T11:14:51.291Z,4.88
2023-01-27T11:17:52.967Z,4.93
2023-01-27T11:20:55.129Z,4.85
2023-01-27T11:23:32.602Z,4.82
2023-01-27T11:26:12.142Z,4.85
2023-01-27T11:29:16.120Z,4.81
2023-01-27T11:32:07.582Z,4.86
2023-01-27T11:35:23.381Z,4.81
2023-01-27T11:38:00.703Z,4.81
2023-01-27T11:40:41.268Z,4.89
2023-01-27T11:43:16.085Z,4.87
2023-01-27T11:45:46.770Z,4.84
2023-01-27T11:48:21.120Z,4.94
2023-01-27T11:50:50.724Z,5.02
2023-01-27T11:53:21.700Z,5.02
2023-01-27T11:55:58.515Z,5.07
2023-01-27T11:58:31.962Z,5.08
2023-01-27T12:01:47.610Z,5.12
2023-01-27T12:04:28.914Z,5.17
2023-01-27T12:07:09.471Z,5.20
2023-01-27T12:09:41.016Z,5.31
2023-01-27T12:12:32.481Z,5.38
2023-01-27T12:15:04.838Z,5.39
2023-01-27T12:17:47.614Z,5.33
2023-01-27T12:20:37.559Z,5.35
2023-01-27T12:23:24.893Z,5.45
2023-01-27T12:26:00.855Z,5.53
2023-01-27T12:28:53.118Z,5.49
2023-01-27T12:31:45.028Z,5.58
2023-01-27T12:37:07.826Z,5.47
2023-01-27T12:39:40.249Z,5.50
2023-01-27T12:42:40.979Z,5.51
2023-01-27T12:45:24.176Z,5.54
2023-01-27T12:50:49.372Z,5.49
2023-01-27T12:53:25.563Z,5.40
2023-01-27T12:56:17.859Z,5.39
2023-01-27T12:58:57.778Z,5.39
2023-01-27T13:01:31.764Z,5.39
2023-01-27T13:04:03.329Z,5.43
2023-01-27T13:06:35.303Z,5.41
2023-01-27T13:09:06.037Z,5.34
2023-01-27T13:11:48.218Z,5.37
2023-01-27T13:14:17.541Z,5.33
2023-01-27T13:16:59.865Z,5.37
2023-01-27T13:19:45.551Z,5.35
2023-01-27T13:22:53.925Z,5.35
2023-01-27T13:29:18.079Z,5.37
2023-01-27T13:32:09.817Z,5.39
2023-01-27T13:35:21.449Z,5.34
2023-01-27T13:38:20.395Z,5.27
2023-01-27T13:40:50.011Z,5.23
2023-01-27T13:43:57.547Z,5.21
2023-01-27T13:46:39.371Z,5.21
2023-01-27T13:49:36.095Z,5.14
2023-01-27T13:52:02.583Z,5.15
2023-01-27T13:54:32.173Z,5.15
2023-01-27T14:00:46.687Z,5.21
2023-01-27T14:03:57.927Z,5.25
2023-01-27T14:06:29.888Z,5.14
2023-01-27T14:09:05.931Z,5.14
2023-01-27T14:11:49.765Z,5.13
2023-01-27T14:14:56.157Z,5.16
2023-01-27T14:17:34.858Z,5.15
2023-01-27T14:20:36.881Z,5.12
2023-01-27T14:26:26.337Z,4.99
2023-01-27T14:29:03.059Z,4.98
2023-01-27T14:32:10.708Z,5.00
2023-01-27T14:35:21.007Z,4.93
2023-01-27T14:38:35.246Z,4.91
2023-01-27T14:41:16.032Z,4.89
2023-01-27T14:43:48.333Z,4.81
2023-01-27T14:46:22.833Z,4.87
2023-01-27T14:49:01.699Z,4.85
2023-01-27T14:51:35.670Z,4.86
2023-01-27T14:54:35.687Z,4.80
2023-01-27T14:57:39.125Z,4.76
2023-01-27T15:00:21.225Z,4.72
2023-01-27T15:03:21.172Z,4.75
2023-01-27T15:06:23.180Z,4.79
2023-01-27T15:09:21.239Z,4.77
2023-01-27T15:15:35.935Z,4.65
2023-01-27T15:18:26.893Z,4.67
2023-01-27T15:21:21.951Z,4.69
2023-01-27T15:24:13.387Z,4.72
2023-01-27T15:29:27.445Z,4.73
2023-01-27T15:32:15.541Z,4.69
2023-01-27T15:34:45.375Z,4.67
2023-01-27T15:37:32.617Z,4.60
2023-01-27T15:40:05.760Z,4.66
2023-01-27T15:43:15.545Z,4.63
2023-01-27T15:45:46.558Z,4.58
2023-01-27T15:48:23.789Z,4.59
2023-01-27T15:51:19.133Z,4.60
2023-01-27T15:56:54.988Z,4.61
2023-01-27T15:59:57.210Z,4.61
2023-01-27T16:02:31.867Z,4.62
2023-01-27T16:05:23.432Z,4.62
2023-01-27T16:08:00.761Z,4.63
2023-01-27T16:10:37.023Z,4.65
2023-01-27T16:13:33.005Z,4.59
2023-01-27T16:16:22.150Z,4.54
2023-01-27T16:19:11.914Z,4.55
2023-01-27T16:21:57.473Z,4.54
2023-01-27T16:24:36.121Z,4.51
2023-01-27T16:27:40.128Z,4.52
2023-01-27T16:30:34.334Z,4.54
2023-01-27T16:33:12.254Z,4.57
2023-01-27T16:36:05.032Z,4.57
2023-01-27T16:38:46.945Z,4.54
2023-01-27T16:41:28.621Z,4.50
2023-01-27T16:43:57.874Z,4.50
2023-01-27T16:46:36.701Z,4.50
2023-01-27T16:49:13.322Z,4.50
2023-01-27T16:51:39.981Z,4.48
2023-01-27T16:54:21.022Z,4.50
2023-01-27T16:56:54.700Z,4.51
2023-01-27T16:59:30.181Z,4.49
2023-01-27T17:02:01.361Z,4.51
2023-01-27T17:04:29.523Z,4.52
2023-01-27T17:07:03.259Z,4.48
2023-01-27T17:09:39.572Z,4.46
2023-01-27T17:12:26.741Z,4.48
2023-01-27T17:14:53.416Z,4.48
2023-01-27T17:17:24.864Z,4.47
2023-01-27T17:19:56.143Z,4.43
2023-01-27T17:22:58.863Z,4.41
2023-01-27T17:25:41.355Z,4.38
2023-01-27T17:28:15.560Z,4.35
2023-01-27T17:30:46.869Z,4.32
2023-01-27T17:33:23.859Z,4.29
2023-01-27T17:36:00.599Z,4.24
2023-01-27T17:38:47.882Z,4.28
2023-01-27T17:42:02.155Z,4.29
2023-01-27T17:44:32.987Z,4.30
2023-01-27T17:47:22.661Z,4.30
2023-01-27T17:49:54.342Z,4.29
2023-01-27T17:52:26.959Z,4.26
2023-01-27T17:54:57.857Z,4.27
2023-01-27T17:57:32.831Z,4.29
2023-01-27T18:00:33.027Z,4.32
2023-01-27T18:03:05.193Z,4.32
2023-01-27T18:05:43.042Z,4.29
2023-01-27T18:08:18.650Z,4.25
2023-01-27T18:10:48.179Z,4.20
2023-01-27T18:13:29.517Z,4.16
2023-01-27T18:19:31.740Z,4.14
2023-01-27T18:22:16.415Z,4.15
2023-01-27T18:25:16.707Z,4.13
2023-01-27T18:30:28.299Z,4.13
2023-01-27T18:33:01.405Z,4.16
2023-01-27T18:35:38.559Z,4.16
2023-01-27T18:38:24.627Z,4.15
2023-01-27T18:40:53.889Z,4.18
2023-01-27T18:43:20.354Z,4.24
2023-01-27T18:45:47.260Z,4.20
2023-01-27T18:48:23.324Z,4.22
2023-01-27T18:50:50.254Z,4.25
2023-01-27T18:53:19.338Z,4.24
2023-01-27T18:55:52.782Z,4.19
2023-01-27T18:58:20.497Z,4.16
2023-01-27T19:00:54.712Z,4.21
2023-01-27T19:03:26.365Z,4.22
2023-01-27T19:05:53.676Z,4.20
2023-01-27T19:08:24.925Z,4.15
2023-01-27T19:10:59.852Z,4.14
2023-01-27T19:13:26.204Z,4.12
2023-01-27T19:15:58.116Z,4.16
2023-01-27T19:18:46.639Z,4.15
2023-01-27T19:21:17.923Z,4.13
2023-01-27T19:23:49.113Z,4.13
2023-01-27T19:26:23.273Z,4.14
2023-01-27T19:28:55.589Z,4.13
2023-01-27T19:31:23.203Z,4.19
2023-01-27T19:33:50.203Z,4.15
2023-01-27T19:36:50.054Z,4.18
2023-01-27T19:39:22.670Z,4.18
2023-01-27T19:44:36.689Z,4.08
2023-01-27T19:47:03.693Z,4.12
2023-01-27T19:49:37.448Z,4.09
2023-01-27T19:52:11.910Z,4.05
2023-01-27T19:54:39.921Z,4.00
2023-01-27T19:57:23.393Z,4.02
2023-01-27T19:59:52.720Z,4.01
2023-01-27T20:02:23.544Z,4.03
2023-01-27T20:04:53.710Z,4.02
2023-01-27T20:07:20.091Z,3.99
2023-01-27T20:09:48.797Z,3.97
2023-01-27T20:12:18.536Z,4.00
2023-01-27T20:14:44.964Z,4.03
2023-01-27T20:17:15.258Z,4.00
2023-01-27T20:19:47.678Z,3.95
2023-01-27T20:22:17.179Z,3.95
2023-01-27T20:24:46.714Z,3.92
2023-01-27T20:27:13.265Z,3.87
2023-01-27T20:29:42.360Z,3.90
2023-01-27T20:32:11.527Z,3.87
2023-01-27T20:34:38.955Z,3.86
2023-01-27T20:37:12.408Z,3.90
2023-01-27T20:39:38.796Z,3.91
2023-01-27T20:42:18.678Z,3.91
2023-01-27T20:44:47.924Z,3.88
2023-01-27T20:47:18.936Z,3.88
2023-01-27T20:49:48.798Z,3.90
2023-01-27T20:52:15.486Z,3.90
2023-01-27T20:54:44.634Z,3.91
2023-01-27T21:00:27.140Z,3.87
2023-01-27T21:02:53.452Z,3.80
2023-01-27T21:05:29.175Z,3.75
2023-01-27T21:07:55.588Z,3.73
2023-01-27T21:13:08.332Z,3.73
2023-01-27T21:15:34.801Z,3.73
2023-01-27T21:18:01.259Z,3.68
2023-01-27T21:20:30.945Z,3.65
2023-01-27T21:23:00.167Z,3.64
2023-01-27T21:25:26.765Z,3.64
2023-01-27T21:27:56.433Z,3.65
2023-01-27T21:30:25.482Z,3.63
2023-01-27T21:32:54.485Z,3.58
2023-01-27T21:35:20.881Z,3.62
2023-01-27T21:37:47.257Z,3.64
2023-01-27T21:40:14.112Z,3.63
2023-01-27T21:43:01.850Z,3.67
2023-01-27T21:45:30.685Z,3.69
2023-01-27T21:47:57.065Z,3.66
2023-01-27T21:50:34.966Z,3.73
2023-01-27T21:53:01.383Z,3.73
2023-01-27T21:58:12.243Z,3.75
2023-01-27T22:00:41.536Z,3.75
2023-01-27T22:03:08.160Z,3.78
2023-01-27T22:05:42.737Z,3.74
2023-01-27T22:08:09.158Z,3.73
2023-01-27T22:10:52.061Z,3.73
2023-01-27T22:13:22.199Z,3.72
2023-01-27T22:15:51.713Z,3.75
2023-01-27T22:18:19.143Z,3.70
2023-01-27T22:20:52.531Z,3.71
2023-01-27T22:23:20.435Z,3.72
2023-01-27T22:25:51.416Z,3.69
2023-01-27T22:31:04.537Z,3.76
2023-01-27T22:33:34.489Z,3.81
2023-01-27T22:36:05.550Z,3.88
2023-01-27T22:38:35.168Z,3.88
2023-01-27T22:41:05.017Z,3.93
2023-01-27T22:43:31.619Z,3.98
2023-01-27T22:46:02.833Z,3.97
2023-01-27T22:48:29.876Z,3.90
2023-01-27T22:50:56.778Z,3.91
2023-01-27T22:53:27.163Z,3.82
2023-01-27T22:55:58.474Z,3.79
2023-01-27T22:58:28.719Z,3.77
2023-01-27T23:00:58.822Z,3.74
2023-01-27T23:03:38.438Z,3.75
2023-01-27T23:06:08.322Z,3.72
2023-01-27T23:08:35.384Z,3.63
2023-01-27T23:11:04.553Z,3.63
2023-01-27T23:13:31.864Z,3.60
2023-01-27T23:16:07.911Z,3.63
2023-01-27T23:18:41.486Z,3.65
2023-01-27T23:21:08.551Z,3.56
2023-01-27T23:23:38.384Z,3.53
2023-01-27T23:26:15.633Z,3.52
2023-01-27T23:28:45.583Z,3.45
2023-01-27T23:31:15.217Z,3.44
2023-01-27T23:33:42.814Z,3.42
2023-01-27T23:36:15.134Z,3.43
2023-01-27T23:38:41.623Z,3.47
2023-01-27T23:41:18.996Z,3.44
2023-01-27T23:43:51.372Z,3.40
2023-01-27T23:46:22.783Z,3.37
2023-01-27T23:51:38.620Z,3.28
2023-01-27T23:54:08.175Z,3.32
2023-01-27T23:56:34.895Z,3.38
2023-01-27T23:59:11.324Z,3.33
